sensor_id;sensor_type;location;lat;lon;timestamp;pressure;altitude;pressure_sealevel;temperature;humidity
1472;BME280;963;42.644;23.336;2023-04-06T00:01:25;93881.00;;;2.88;57.65
1472;BME280;963;42.644;23.336;2023-04-06T00:03:50;93889.97;;;2.99;57.47
1472;BME280;963;42.644;23.336;2023-04-06T00:06:16;93885.69;;;2.94;57.75
1472;BME280;963;42.644;23.336;2023-04-06T00:08:42;93904.03;;;2.89;57.80
1472;BME280;963;42.644;23.336;2023-04-06T00:11:08;93878.97;;;2.93;57.18
1472;BME280;963;42.644;23.336;2023-04-06T00:13:33;93881.00;;;2.88;57.50
1472;BME280;963;42.644;23.336;2023-04-06T00:15:59;93880.28;;;2.78;57.74
1472;BME280;963;42.644;23.336;2023-04-06T00:18:24;93884.03;;;2.90;57.56
1472;BME280;963;42.644;23.336;2023-04-06T00:20:50;93884.16;;;2.93;57.22
1472;BME280;963;42.644;23.336;2023-04-06T00:23:16;93883.72;;;2.91;57.35
1472;BME280;963;42.644;23.336;2023-04-06T00:25:41;93885.88;;;2.89;57.48
1472;BME280;963;42.644;23.336;2023-04-06T00:28:07;93871.59;;;2.74;57.77
1472;BME280;963;42.644;23.336;2023-04-06T00:30:32;93874.19;;;2.74;57.79
1472;BME280;963;42.644;23.336;2023-04-06T00:32:58;93866.47;;;2.87;57.29
1472;BME280;963;42.644;23.336;2023-04-06T00:35:23;93851.97;;;2.86;57.25
1472;BME280;963;42.644;23.336;2023-04-06T00:37:49;93856.09;;;2.87;57.74
1472;BME280;963;42.644;23.336;2023-04-06T00:40:14;93864.78;;;2.91;57.56
1472;BME280;963;42.644;23.336;2023-04-06T00:42:40;93858.44;;;2.79;57.70
1472;BME280;963;42.644;23.336;2023-04-06T00:45:07;93849.50;;;2.89;57.67
1472;BME280;963;42.644;23.336;2023-04-06T00:47:33;93858.19;;;2.93;57.47
1472;BME280;963;42.644;23.336;2023-04-06T00:49:58;93847.03;;;2.93;57.44
1472;BME280;963;42.644;23.336;2023-04-06T00:52:24;93850.47;;;2.85;57.95
1472;BME280;963;42.644;23.336;2023-04-06T00:54:50;93866.13;;;2.97;57.30
1472;BME280;963;42.644;23.336;2023-04-06T00:57:18;93862.63;;;2.93;57.79
1472;BME280;963;42.644;23.336;2023-04-06T00:59:45;93884.66;;;2.87;57.25
1472;BME280;963;42.644;23.336;2023-04-06T01:02:10;93863.81;;;2.74;58.34
1472;BME280;963;42.644;23.336;2023-04-06T01:04:36;93871.59;;;2.74;57.84
1472;BME280;963;42.644;23.336;2023-04-06T01:07:01;93867.94;;;2.75;58.62
1472;BME280;963;42.644;23.336;2023-04-06T01:09:28;93851.28;;;2.76;58.52
1472;BME280;963;42.644;23.336;2023-04-06T01:11:57;93846.16;;;2.30;59.73
1472;BME280;963;42.644;23.336;2023-04-06T01:14:24;93850.06;;;2.74;58.69
1472;BME280;963;42.644;23.336;2023-04-06T01:16:50;93853.50;;;2.87;58.37
1472;BME280;963;42.644;23.336;2023-04-06T01:19:15;93847.53;;;2.86;58.37
1472;BME280;963;42.644;23.336;2023-04-06T01:21:41;93843.09;;;2.87;58.23
1472;BME280;963;42.644;23.336;2023-04-06T01:24:08;93833.97;;;2.80;58.36
1472;BME280;963;42.644;23.336;2023-04-06T01:26:34;93842.53;;;2.81;58.60
1472;BME280;963;42.644;23.336;2023-04-06T01:29:00;93829.28;;;2.74;59.04
1472;BME280;963;42.644;23.336;2023-04-06T01:31:27;93845.84;;;2.90;58.86
1472;BME280;963;42.644;23.336;2023-04-06T01:33:53;93849.38;;;2.86;58.72
1472;BME280;963;42.644;23.336;2023-04-06T01:36:18;93836.56;;;2.80;58.89
1472;BME280;963;42.644;23.336;2023-04-06T01:38:44;93821.19;;;2.75;58.88
1472;BME280;963;42.644;23.336;2023-04-06T01:41:10;93832.34;;;2.76;58.64
1472;BME280;963;42.644;23.336;2023-04-06T01:43:35;93837.22;;;2.77;58.55
1472;BME280;963;42.644;23.336;2023-04-06T01:46:01;93863.50;;;2.97;58.21
1472;BME280;963;42.644;23.336;2023-04-06T01:48:27;93834.88;;;2.85;59.25
1472;BME280;963;42.644;23.336;2023-04-06T01:50:53;93836.53;;;2.89;58.71
1472;BME280;963;42.644;23.336;2023-04-06T01:53:19;93825.63;;;2.75;59.22
1472;BME280;963;42.644;23.336;2023-04-06T01:55:44;93840.97;;;2.89;58.77
1472;BME280;963;42.644;23.336;2023-04-06T01:58:10;93830.56;;;2.89;59.27
1472;BME280;963;42.644;23.336;2023-04-06T02:00:36;93811.81;;;2.83;59.05
1472;BME280;963;42.644;23.336;2023-04-06T02:03:01;93832.09;;;2.90;58.18
1472;BME280;963;42.644;23.336;2023-04-06T02:05:28;93837.28;;;2.90;58.95
1472;BME280;963;42.644;23.336;2023-04-06T02:07:54;93813.13;;;2.98;58.90
1472;BME280;963;42.644;23.336;2023-04-06T02:10:20;93805.47;;;2.93;58.71
1472;BME280;963;42.644;23.336;2023-04-06T02:12:45;93817.53;;;2.97;58.84
1472;BME280;963;42.644;23.336;2023-04-06T02:15:11;93815.25;;;2.96;58.42
1472;BME280;963;42.644;23.336;2023-04-06T02:17:38;93825.91;;;3.03;58.62
1472;BME280;963;42.644;23.336;2023-04-06T02:20:05;93817.22;;;2.99;58.29
1472;BME280;963;42.644;23.336;2023-04-06T02:22:30;93817.22;;;2.99;58.12
1472;BME280;963;42.644;23.336;2023-04-06T02:24:56;93803.97;;;2.92;58.29
1472;BME280;963;42.644;23.336;2023-04-06T02:27:21;93814.25;;;3.09;58.23
1472;BME280;963;42.644;23.336;2023-04-06T02:29:46;93801.81;;;2.94;58.82
1472;BME280;963;42.644;23.336;2023-04-06T02:32:12;93814.97;;;2.89;59.01
1472;BME280;963;42.644;23.336;2023-04-06T02:34:37;93817.13;;;2.87;58.58
1472;BME280;963;42.644;23.336;2023-04-06T02:37:03;93842.84;;;2.79;59.41
1472;BME280;963;42.644;23.336;2023-04-06T02:39:28;93809.03;;;2.67;59.45
1472;BME280;963;42.644;23.336;2023-04-06T02:41:53;93812.06;;;2.90;58.88
1472;BME280;963;42.644;23.336;2023-04-06T02:44:20;93818.16;;;2.94;58.86
1472;BME280;963;42.644;23.336;2023-04-06T02:46:45;93814.00;;;3.02;58.84
1472;BME280;963;42.644;23.336;2023-04-06T02:49:11;93821.34;;;3.00;58.80
1472;BME280;963;42.644;23.336;2023-04-06T02:51:36;93819.19;;;3.02;58.45
1472;BME280;963;42.644;23.336;2023-04-06T02:54:02;93795.97;;;2.97;58.62
1472;BME280;963;42.644;23.336;2023-04-06T02:56:27;93802.56;;;2.94;58.53
1472;BME280;963;42.644;23.336;2023-04-06T02:58:53;93806.38;;;2.97;59.40
1472;BME280;963;42.644;23.336;2023-04-06T03:01:18;93798.53;;;3.05;58.70
1472;BME280;963;42.644;23.336;2023-04-06T03:03:43;93817.69;;;3.01;58.57
1472;BME280;963;42.644;23.336;2023-04-06T03:06:09;93826.38;;;2.96;58.62
1472;BME280;963;42.644;23.336;2023-04-06T03:08:35;93800.03;;;2.86;59.09
1472;BME280;963;42.644;23.336;2023-04-06T03:11:00;93816.63;;;2.93;59.11
1472;BME280;963;42.644;23.336;2023-04-06T03:13:26;93802.06;;;2.80;59.37
1472;BME280;963;42.644;23.336;2023-04-06T03:15:51;93809.72;;;2.97;59.47
1472;BME280;963;42.644;23.336;2023-04-06T03:18:24;93806.25;;;2.93;59.11
1472;BME280;963;42.644;23.336;2023-04-06T03:20:50;93803.00;;;2.96;59.14
1472;BME280;963;42.644;23.336;2023-04-06T03:23:16;93800.50;;;3.08;58.65
1472;BME280;963;42.644;23.336;2023-04-06T03:25:41;93804.25;;;2.99;59.04
1472;BME280;963;42.644;23.336;2023-04-06T03:28:07;93794.84;;;2.86;59.57
1472;BME280;963;42.644;23.336;2023-04-06T03:30:33;93797.53;;;2.98;58.89
1472;BME280;963;42.644;23.336;2023-04-06T03:32:59;93794.31;;;3.01;58.50
1472;BME280;963;42.644;23.336;2023-04-06T03:35:25;93775.16;;;2.85;58.90
1472;BME280;963;42.644;23.336;2023-04-06T03:37:50;93790.78;;;2.97;58.60
1472;BME280;963;42.644;23.336;2023-04-06T03:40:16;93804.84;;;2.96;58.81
1472;BME280;963;42.644;23.336;2023-04-06T03:42:41;93814.63;;;2.99;59.12
1472;BME280;963;42.644;23.336;2023-04-06T03:45:07;93795.84;;;2.93;59.04
1472;BME280;963;42.644;23.336;2023-04-06T03:47:33;93799.94;;;3.03;58.66
1472;BME280;963;42.644;23.336;2023-04-06T03:49:58;93790.09;;;2.88;58.90
1472;BME280;963;42.644;23.336;2023-04-06T03:52:24;93791.41;;;2.94;58.69
1472;BME280;963;42.644;23.336;2023-04-06T03:54:49;93791.16;;;2.87;58.49
1472;BME280;963;42.644;23.336;2023-04-06T03:57:15;93802.72;;;2.98;58.22
1472;BME280;963;42.644;23.336;2023-04-06T03:59:40;93791.41;;;2.94;58.93
1472;BME280;963;42.644;23.336;2023-04-06T04:02:06;93790.66;;;2.93;58.15
1472;BME280;963;42.644;23.336;2023-04-06T04:04:31;93803.28;;;2.82;58.27
1472;BME280;963;42.644;23.336;2023-04-06T04:06:56;93795.22;;;2.75;59.28
1472;BME280;963;42.644;23.336;2023-04-06T04:09:22;93791.28;;;2.90;58.47
1472;BME280;963;42.644;23.336;2023-04-06T04:11:47;93790.53;;;2.90;58.63
1472;BME280;963;42.644;23.336;2023-04-06T04:14:13;93786.22;;;2.94;58.09
1472;BME280;963;42.644;23.336;2023-04-06T04:16:38;93805.75;;;3.00;58.24
1472;BME280;963;42.644;23.336;2023-04-06T04:19:04;93794.66;;;2.91;58.86
1472;BME280;963;42.644;23.336;2023-04-06T04:21:31;93808.38;;;3.00;58.63
1472;BME280;963;42.644;23.336;2023-04-06T04:23:56;93803.78;;;2.97;58.42
1472;BME280;963;42.644;23.336;2023-04-06T04:26:22;93811.56;;;2.97;58.20
1472;BME280;963;42.644;23.336;2023-04-06T04:28:47;93809.28;;;2.95;58.81
1472;BME280;963;42.644;23.336;2023-04-06T04:31:13;93800.50;;;3.08;58.18
1472;BME280;963;42.644;23.336;2023-04-06T04:33:38;93820.78;;;3.15;58.18
1472;BME280;963;42.644;23.336;2023-04-06T04:36:04;93815.88;;;2.93;58.77
1472;BME280;963;42.644;23.336;2023-04-06T04:38:30;93804.38;;;3.02;58.36
1472;BME280;963;42.644;23.336;2023-04-06T04:40:55;93796.13;;;3.00;58.87
1472;BME280;963;42.644;23.336;2023-04-06T04:43:21;93811.94;;;3.28;57.95
1472;BME280;963;42.644;23.336;2023-04-06T04:45:46;93810.19;;;3.20;57.61
1472;BME280;963;42.644;23.336;2023-04-06T04:48:11;93794.47;;;3.17;57.46
1472;BME280;963;42.644;23.336;2023-04-06T04:50:37;93803.28;;;3.24;57.81
1472;BME280;963;42.644;23.336;2023-04-06T04:53:03;93802.44;;;3.32;57.71
1472;BME280;963;42.644;23.336;2023-04-06T04:55:31;93797.25;;;3.32;57.53
1472;BME280;963;42.644;23.336;2023-04-06T04:57:56;93789.72;;;3.39;57.37
1472;BME280;963;42.644;23.336;2023-04-06T05:00:22;93801.00;;;3.43;57.43
1472;BME280;963;42.644;23.336;2023-04-06T05:02:47;93814.34;;;3.33;58.06
1472;BME280;963;42.644;23.336;2023-04-06T05:05:13;93801.50;;;3.37;57.18
1472;BME280;963;42.644;23.336;2023-04-06T05:07:38;93803.59;;;3.43;58.00
1472;BME280;963;42.644;23.336;2023-04-06T05:10:05;93803.97;;;3.33;57.92
1472;BME280;963;42.644;23.336;2023-04-06T05:12:30;93794.72;;;3.44;57.80
1472;BME280;963;42.644;23.336;2023-04-06T05:14:56;93810.22;;;3.53;57.39
1472;BME280;963;42.644;23.336;2023-04-06T05:17:21;93797.75;;;3.47;57.29
1472;BME280;963;42.644;23.336;2023-04-06T05:19:47;93797.34;;;3.57;56.82
1472;BME280;963;42.644;23.336;2023-04-06T05:22:12;93804.81;;;3.58;57.00
1472;BME280;963;42.644;23.336;2023-04-06T05:24:41;93796.59;;;3.56;56.89
1472;BME280;963;42.644;23.336;2023-04-06T05:27:06;93812.06;;;3.53;57.78
1472;BME280;963;42.644;23.336;2023-04-06T05:29:32;93804.56;;;3.72;56.93
1472;BME280;963;42.644;23.336;2023-04-06T05:31:58;93801.03;;;3.56;57.34
1472;BME280;963;42.644;23.336;2023-04-06T05:34:23;93808.84;;;3.68;57.20
1472;BME280;963;42.644;23.336;2023-04-06T05:36:49;93812.28;;;3.81;56.86
1472;BME280;963;42.644;23.336;2023-04-06T05:39:15;93804.78;;;3.79;56.70
1472;BME280;963;42.644;23.336;2023-04-06T05:41:40;93822.88;;;3.75;57.33
1472;BME280;963;42.644;23.336;2023-04-06T05:44:06;93816.06;;;3.83;56.86
1472;BME280;963;42.644;23.336;2023-04-06T05:46:31;93828.75;;;3.85;57.22
1472;BME280;963;42.644;23.336;2023-04-06T05:48:57;93813.47;;;3.95;56.87
1472;BME280;963;42.644;23.336;2023-04-06T05:51:22;93808.63;;;4.06;56.73
1472;BME280;963;42.644;23.336;2023-04-06T05:53:48;93815.84;;;3.88;57.03
1472;BME280;963;42.644;23.336;2023-04-06T05:56:13;93814.41;;;4.12;56.24
1472;BME280;963;42.644;23.336;2023-04-06T05:58:39;93802.47;;;4.23;56.78
1472;BME280;963;42.644;23.336;2023-04-06T06:01:04;93816.78;;;4.29;56.23
1472;BME280;963;42.644;23.336;2023-04-06T06:03:30;93799.00;;;4.31;56.37
1472;BME280;963;42.644;23.336;2023-04-06T06:06:02;93823.22;;;3.86;57.66
1472;BME280;963;42.644;23.336;2023-04-06T06:08:28;93792.91;;;4.02;57.55
1472;BME280;963;42.644;23.336;2023-04-06T06:10:54;93795.81;;;4.01;57.57
1472;BME280;963;42.644;23.336;2023-04-06T06:13:20;93807.47;;;4.28;56.63
1472;BME280;963;42.644;23.336;2023-04-06T06:15:46;93790.53;;;4.22;56.91
1472;BME280;963;42.644;23.336;2023-04-06T06:18:11;93797.69;;;4.37;56.65
1472;BME280;963;42.644;23.336;2023-04-06T06:20:37;93805.28;;;4.42;56.44
1472;BME280;963;42.644;23.336;2023-04-06T06:23:02;93794.44;;;4.40;56.50
1472;BME280;963;42.644;23.336;2023-04-06T06:25:28;93796.63;;;4.50;56.55
1472;BME280;963;42.644;23.336;2023-04-06T06:27:56;93824.19;;;4.51;56.52
1472;BME280;963;42.644;23.336;2023-04-06T06:30:21;93805.94;;;4.39;56.91
1472;BME280;963;42.644;23.336;2023-04-06T06:32:46;93810.53;;;4.54;55.98
1472;BME280;963;42.644;23.336;2023-04-06T06:35:12;93785.34;;;4.58;56.02
1472;BME280;963;42.644;23.336;2023-04-06T06:37:37;93774.72;;;4.51;56.24
1472;BME280;963;42.644;23.336;2023-04-06T06:40:03;93790.53;;;4.70;56.24
1472;BME280;963;42.644;23.336;2023-04-06T06:42:29;93797.16;;;4.68;55.91
1472;BME280;963;42.644;23.336;2023-04-06T06:44:55;93784.25;;;4.84;55.59
1472;BME280;963;42.644;23.336;2023-04-06T06:47:20;93805.06;;;4.84;55.32
1472;BME280;963;42.644;23.336;2023-04-06T06:49:46;93801.38;;;4.85;55.44
1472;BME280;963;42.644;23.336;2023-04-06T06:52:11;93791.47;;;5.02;55.41
1472;BME280;963;42.644;23.336;2023-04-06T06:54:36;93795.25;;;5.05;55.19
1472;BME280;963;42.644;23.336;2023-04-06T06:57:02;93786.53;;;5.25;55.49
1472;BME280;963;42.644;23.336;2023-04-06T06:59:27;93790.13;;;5.09;56.03
1472;BME280;963;42.644;23.336;2023-04-06T07:01:53;93782.59;;;5.19;55.70
1472;BME280;963;42.644;23.336;2023-04-06T07:04:18;93796.72;;;5.30;55.01
1472;BME280;963;42.644;23.336;2023-04-06T07:06:44;93785.44;;;5.26;54.84
1472;BME280;963;42.644;23.336;2023-04-06T07:09:09;93778.59;;;5.50;54.67
1472;BME280;963;42.644;23.336;2023-04-06T07:11:35;93776.53;;;5.27;54.83
1472;BME280;963;42.644;23.336;2023-04-06T07:14:00;93788.09;;;5.42;54.59
1472;BME280;963;42.644;23.336;2023-04-06T07:16:26;93776.81;;;5.38;54.63
1472;BME280;963;42.644;23.336;2023-04-06T07:18:51;93777.38;;;5.31;54.26
1472;BME280;963;42.644;23.336;2023-04-06T07:21:16;93766.91;;;5.03;56.00
1472;BME280;963;42.644;23.336;2023-04-06T07:23:42;93785.88;;;5.16;55.08
1472;BME280;963;42.644;23.336;2023-04-06T07:26:07;93770.66;;;5.30;54.79
1472;BME280;963;42.644;23.336;2023-04-06T07:28:33;93774.59;;;5.12;54.01
1472;BME280;963;42.644;23.336;2023-04-06T07:30:58;93772.81;;;5.28;54.24
1472;BME280;963;42.644;23.336;2023-04-06T07:33:23;93789.50;;;5.40;54.17
1472;BME280;963;42.644;23.336;2023-04-06T07:35:50;93787.75;;;5.44;54.02
1472;BME280;963;42.644;23.336;2023-04-06T07:38:15;93785.16;;;5.44;53.89
1472;BME280;963;42.644;23.336;2023-04-06T07:40:41;93780.75;;;5.20;54.01
1472;BME280;963;42.644;23.336;2023-04-06T07:43:06;93762.81;;;5.30;54.08
1472;BME280;963;42.644;23.336;2023-04-06T07:45:31;93764.84;;;5.37;54.52
1472;BME280;963;42.644;23.336;2023-04-06T07:47:58;93766.03;;;5.40;54.59
1472;BME280;963;42.644;23.336;2023-04-06T07:50:23;93759.72;;;5.41;54.35
1472;BME280;963;42.644;23.336;2023-04-06T07:52:49;93779.78;;;5.24;54.59
1472;BME280;963;42.644;23.336;2023-04-06T07:55:14;93770.59;;;5.43;54.77
1472;BME280;963;42.644;23.336;2023-04-06T07:57:40;93790.03;;;5.45;55.64
1472;BME280;963;42.644;23.336;2023-04-06T08:00:05;93761.66;;;5.44;55.80
1472;BME280;963;42.644;23.336;2023-04-06T08:02:31;93771.84;;;5.77;54.93
1472;BME280;963;42.644;23.336;2023-04-06T08:04:57;93783.56;;;5.83;54.44
1472;BME280;963;42.644;23.336;2023-04-06T08:07:23;93765.00;;;6.00;54.41
1472;BME280;963;42.644;23.336;2023-04-06T08:09:48;93739.28;;;5.86;54.70
1472;BME280;963;42.644;23.336;2023-04-06T08:12:14;93778.22;;;6.07;54.09
1472;BME280;963;42.644;23.336;2023-04-06T08:14:39;93761.31;;;6.01;53.99
1472;BME280;963;42.644;23.336;2023-04-06T08:17:05;93780.59;;;5.97;54.22
1472;BME280;963;42.644;23.336;2023-04-06T08:19:30;93781.59;;;5.80;54.31
1472;BME280;963;42.644;23.336;2023-04-06T08:21:56;93773.34;;;6.06;53.47
1472;BME280;963;42.644;23.336;2023-04-06T08:24:22;93773.50;;;6.13;52.40
1472;BME280;963;42.644;23.336;2023-04-06T08:26:47;93786.13;;;6.11;54.17
1472;BME280;963;42.644;23.336;2023-04-06T08:29:13;93766.94;;;6.19;52.92
1472;BME280;963;42.644;23.336;2023-04-06T08:31:38;93778.22;;;6.23;52.21
1472;BME280;963;42.644;23.336;2023-04-06T08:34:04;93783.78;;;6.37;52.87
1472;BME280;963;42.644;23.336;2023-04-06T08:36:30;93761.44;;;6.24;53.41
1472;BME280;963;42.644;23.336;2023-04-06T08:38:56;93791.59;;;6.53;51.04
1472;BME280;963;42.644;23.336;2023-04-06T08:41:22;93794.13;;;6.49;50.66
1472;BME280;963;42.644;23.336;2023-04-06T08:43:59;93781.59;;;6.08;51.11
1472;BME280;963;42.644;23.336;2023-04-06T08:46:25;93787.75;;;6.15;50.94
1472;BME280;963;42.644;23.336;2023-04-06T08:48:56;93778.81;;;6.32;50.01
1472;BME280;963;42.644;23.336;2023-04-06T08:51:23;93771.00;;;6.32;49.82
1472;BME280;963;42.644;23.336;2023-04-06T08:53:55;93768.03;;;6.34;49.99
1472;BME280;963;42.644;23.336;2023-04-06T08:56:25;93788.75;;;6.26;50.29
1472;BME280;963;42.644;23.336;2023-04-06T08:58:53;93764.34;;;6.35;50.45
1472;BME280;963;42.644;23.336;2023-04-06T09:01:25;93766.56;;;6.52;50.51
1472;BME280;963;42.644;23.336;2023-04-06T09:03:51;93775.16;;;6.52;49.76
1472;BME280;963;42.644;23.336;2023-04-06T09:06:20;93786.44;;;6.72;49.79
1472;BME280;963;42.644;23.336;2023-04-06T09:08:46;93778.19;;;6.54;50.31
1472;BME280;963;42.644;23.336;2023-04-06T09:11:11;93763.50;;;6.66;50.42
1472;BME280;963;42.644;23.336;2023-04-06T09:13:50;93767.56;;;6.63;50.23
1472;BME280;963;42.644;23.336;2023-04-06T09:16:17;93776.38;;;6.39;50.35
1472;BME280;963;42.644;23.336;2023-04-06T09:18:43;93777.94;;;6.59;50.16
1472;BME280;963;42.644;23.336;2023-04-06T09:21:09;93771.88;;;6.71;49.95
1472;BME280;963;42.644;23.336;2023-04-06T09:23:35;93769.34;;;6.75;50.60
1472;BME280;963;42.644;23.336;2023-04-06T09:28:51;93765.03;;;7.02;49.88
1472;BME280;963;42.644;23.336;2023-04-06T09:31:22;93745.50;;;7.15;48.01
1472;BME280;963;42.644;23.336;2023-04-06T09:33:49;93768.28;;;7.14;49.35
1472;BME280;963;42.644;23.336;2023-04-06T09:36:14;93757.97;;;7.21;49.11
1472;BME280;963;42.644;23.336;2023-04-06T09:38:53;93775.94;;;7.23;48.24
1472;BME280;963;42.644;23.336;2023-04-06T09:41:31;93766.50;;;7.38;48.62
1472;BME280;963;42.644;23.336;2023-04-06T09:44:04;93765.66;;;7.53;47.27
1472;BME280;963;42.644;23.336;2023-04-06T09:46:43;93764.69;;;7.61;47.12
1472;BME280;963;42.644;23.336;2023-04-06T09:49:10;93778.59;;;7.65;47.50
1472;BME280;963;42.644;23.336;2023-04-06T09:51:40;93752.91;;;7.71;46.38
1472;BME280;963;42.644;23.336;2023-04-06T09:54:07;93755.91;;;7.50;47.29
1472;BME280;963;42.644;23.336;2023-04-06T09:56:55;93757.66;;;7.65;46.26
1472;BME280;963;42.644;23.336;2023-04-06T09:59:40;93776.31;;;7.83;46.16
1472;BME280;963;42.644;23.336;2023-04-06T10:02:21;93764.09;;;7.91;46.09
1472;BME280;963;42.644;23.336;2023-04-06T10:05:05;93766.81;;;7.75;45.94
1472;BME280;963;42.644;23.336;2023-04-06T10:07:33;93752.41;;;7.84;46.16
1472;BME280;963;42.644;23.336;2023-04-06T10:10:00;93751.72;;;7.88;46.18
1472;BME280;963;42.644;23.336;2023-04-06T10:12:27;93758.69;;;8.03;45.65
1472;BME280;963;42.644;23.336;2023-04-06T10:14:53;93755.66;;;8.01;45.59
1472;BME280;963;42.644;23.336;2023-04-06T10:17:19;93758.03;;;8.09;45.53
1472;BME280;963;42.644;23.336;2023-04-06T10:19:59;93738.13;;;8.28;45.52
1472;BME280;963;42.644;23.336;2023-04-06T10:25:08;93749.69;;;8.72;44.42
1472;BME280;963;42.644;23.336;2023-04-06T10:27:33;93771.78;;;8.26;44.83
1472;BME280;963;42.644;23.336;2023-04-06T10:30:04;93733.50;;;8.67;44.50
1472;BME280;963;42.644;23.336;2023-04-06T10:32:37;93730.31;;;8.81;43.53
1472;BME280;963;42.644;23.336;2023-04-06T10:35:10;93746.44;;;8.83;43.03
1472;BME280;963;42.644;23.336;2023-04-06T10:37:51;93755.47;;;8.85;43.27
1472;BME280;963;42.644;23.336;2023-04-06T10:40:26;93724.91;;;8.96;43.63
1472;BME280;963;42.644;23.336;2023-04-06T10:42:53;93740.13;;;8.87;44.03
1472;BME280;963;42.644;23.336;2023-04-06T10:45:24;93731.25;;;8.95;43.23
1472;BME280;963;42.644;23.336;2023-04-06T10:47:52;93738.31;;;8.91;43.38
1472;BME280;963;42.644;23.336;2023-04-06T10:50:19;93736.44;;;8.92;43.35
1472;BME280;963;42.644;23.336;2023-04-06T10:52:45;93729.63;;;9.17;42.83
1472;BME280;963;42.644;23.336;2023-04-06T10:55:13;93734.84;;;9.14;42.96
1472;BME280;963;42.644;23.336;2023-04-06T10:57:39;93731.19;;;9.22;43.07
1472;BME280;963;42.644;23.336;2023-04-06T11:00:06;93737.81;;;9.12;43.21
1472;BME280;963;42.644;23.336;2023-04-06T11:02:32;93733.19;;;8.72;44.31
1472;BME280;963;42.644;23.336;2023-04-06T11:04:58;93735.41;;;8.96;43.91
1472;BME280;963;42.644;23.336;2023-04-06T11:07:27;93727.41;;;8.89;43.57
1472;BME280;963;42.644;23.336;2023-04-06T11:09:56;93728.38;;;9.04;44.02
1472;BME280;963;42.644;23.336;2023-04-06T11:12:27;93711.44;;;8.98;43.77
1472;BME280;963;42.644;23.336;2023-04-06T11:15:01;93742.56;;;8.73;44.24
1472;BME280;963;42.644;23.336;2023-04-06T11:17:33;93733.69;;;9.11;43.48
1472;BME280;963;42.644;23.336;2023-04-06T11:19:59;93721.38;;;9.15;42.80
1472;BME280;963;42.644;23.336;2023-04-06T11:22:26;93722.91;;;9.20;43.16
1472;BME280;963;42.644;23.336;2023-04-06T11:24:52;93723.91;;;9.38;43.58
1472;BME280;963;42.644;23.336;2023-04-06T11:27:18;93713.25;;;9.27;42.57
1472;BME280;963;42.644;23.336;2023-04-06T11:29:44;93718.06;;;9.22;42.78
1472;BME280;963;42.644;23.336;2023-04-06T11:32:20;93715.28;;;9.07;43.58
1472;BME280;963;42.644;23.336;2023-04-06T11:34:47;93722.03;;;9.08;43.77
1472;BME280;963;42.644;23.336;2023-04-06T11:37:14;93699.22;;;8.83;43.77
1472;BME280;963;42.644;23.336;2023-04-06T11:39:51;93710.22;;;8.92;43.85
1472;BME280;963;42.644;23.336;2023-04-06T11:42:27;93711.38;;;8.64;44.04
1472;BME280;963;42.644;23.336;2023-04-06T11:44:56;93709.97;;;8.21;44.61
1472;BME280;963;42.644;23.336;2023-04-06T11:47:33;93706.75;;;8.31;44.74
1472;BME280;963;42.644;23.336;2023-04-06T11:50:12;93707.47;;;8.28;44.64
1472;BME280;963;42.644;23.336;2023-04-06T11:52:39;93716.88;;;8.56;44.31
1472;BME280;963;42.644;23.336;2023-04-06T11:55:14;93712.31;;;8.53;44.54
1472;BME280;963;42.644;23.336;2023-04-06T11:57:40;93708.16;;;8.78;44.85
1472;BME280;963;42.644;23.336;2023-04-06T12:00:07;93720.84;;;8.72;44.28
1472;BME280;963;42.644;23.336;2023-04-06T12:02:34;93707.47;;;8.81;43.57
1472;BME280;963;42.644;23.336;2023-04-06T12:05:01;93698.34;;;8.71;43.89
1472;BME280;963;42.644;23.336;2023-04-06T12:07:26;93688.72;;;8.53;44.21
1472;BME280;963;42.644;23.336;2023-04-06T12:09:53;93701.63;;;8.65;44.26
1472;BME280;963;42.644;23.336;2023-04-06T12:12:18;93716.34;;;8.46;44.16
1472;BME280;963;42.644;23.336;2023-04-06T12:14:44;93705.56;;;8.52;44.13
1472;BME280;963;42.644;23.336;2023-04-06T12:17:09;93722.69;;;8.45;44.50
1472;BME280;963;42.644;23.336;2023-04-06T12:19:34;93712.22;;;8.45;44.05
1472;BME280;963;42.644;23.336;2023-04-06T12:22:00;93704.09;;;8.28;44.05
1472;BME280;963;42.644;23.336;2023-04-06T12:24:25;93703.16;;;8.16;45.22
1472;BME280;963;42.644;23.336;2023-04-06T12:26:52;93687.56;;;8.01;45.95
1472;BME280;963;42.644;23.336;2023-04-06T12:29:18;93703.09;;;8.13;45.39
1472;BME280;963;42.644;23.336;2023-04-06T12:31:43;93699.66;;;8.09;44.76
1472;BME280;963;42.644;23.336;2023-04-06T12:34:10;93700.47;;;8.13;45.21
1472;BME280;963;42.644;23.336;2023-04-06T12:36:36;93702.88;;;7.99;45.69
1472;BME280;963;42.644;23.336;2023-04-06T12:39:02;93697.25;;;7.97;45.45
1472;BME280;963;42.644;23.336;2023-04-06T12:41:28;93691.09;;;7.86;45.86
1472;BME280;963;42.644;23.336;2023-04-06T12:43:55;93692.53;;;7.83;45.96
1472;BME280;963;42.644;23.336;2023-04-06T12:46:20;93686.25;;;7.88;45.51
1472;BME280;963;42.644;23.336;2023-04-06T12:48:46;93681.16;;;7.75;46.20
1472;BME280;963;42.644;23.336;2023-04-06T12:51:12;93687.16;;;7.76;45.58
1472;BME280;963;42.644;23.336;2023-04-06T12:53:37;93705.22;;;7.81;45.63
1472;BME280;963;42.644;23.336;2023-04-06T12:56:11;93709.47;;;7.89;45.82
1472;BME280;963;42.644;23.336;2023-04-06T12:58:37;93690.44;;;7.92;45.59
1472;BME280;963;42.644;23.336;2023-04-06T13:01:06;93686.66;;;7.90;45.84
1472;BME280;963;42.644;23.336;2023-04-06T13:03:31;93681.22;;;7.79;45.54
1472;BME280;963;42.644;23.336;2023-04-06T13:05:59;93680.56;;;7.82;44.49
1472;BME280;963;42.644;23.336;2023-04-06T13:08:25;93685.16;;;7.89;44.67
1472;BME280;963;42.644;23.336;2023-04-06T13:10:51;93671.34;;;7.92;45.56
1472;BME280;963;42.644;23.336;2023-04-06T13:13:28;93684.19;;;7.77;45.60
1472;BME280;963;42.644;23.336;2023-04-06T13:15:54;93681.31;;;7.82;45.69
1472;BME280;963;42.644;23.336;2023-04-06T13:18:23;93670.94;;;7.90;45.86
1472;BME280;963;42.644;23.336;2023-04-06T13:20:49;93684.84;;;7.94;45.77
1472;BME280;963;42.644;23.336;2023-04-06T13:23:14;93671.06;;;7.97;45.24
1472;BME280;963;42.644;23.336;2023-04-06T13:25:40;93674.28;;;7.87;45.16
1472;BME280;963;42.644;23.336;2023-04-06T13:28:05;93674.03;;;7.95;44.67
1472;BME280;963;42.644;23.336;2023-04-06T13:30:31;93674.72;;;7.92;44.44
1472;BME280;963;42.644;23.336;2023-04-06T13:32:56;93675.25;;;7.78;44.39
1472;BME280;963;42.644;23.336;2023-04-06T13:35:22;93677.09;;;7.78;44.70